Latest Weather Observations for Sellicks Hill

IDS60901

Issued at 4:51 pm CST Sunday 11 April 2021 (issued every 10 minutes, with the page automatically refreshed every 10 minutes)

About weather observations | Map of Adelaide area stations | Latest observations for Adelaide area | Other Formats
Station Details ID: 023886 Name: MOUNT TERRIBLE RADAR Lat: -35.33 Lon: 138.50 Height: 385.7 m
Data from the previous 72 hours. | See also: Recent months at Sellicks Hill
Date/Time
CST
Temp
°C
App
Temp
°C
Dew
Point
°C
Rel
Hum
%
Delta-T
°C
Wind Press
QNH
hPa
Press
MSL
hPa
Rain since
9am
mm
Dir  Spd
km/h
Gust
km/h
Spd
kts
Gust
kts
11/04:30pm - - - - - SSE 26 33 14 18 - - -
11/04:00pm - - - - - S 19 30 10 16 - - -
11/03:30pm - - - - - S 17 30 9 16 - - -
11/03:00pm - - - - - S 17 30 9 16 - - -
11/02:30pm - - - - - S 20 32 11 17 - - -
11/02:00pm - - - - - S 26 35 14 19 - - -
11/01:30pm - - - - - SSE 22 32 12 17 - - -
11/01:00pm - - - - - S 19 28 10 15 - - -
11/12:30pm - - - - - SSE 28 35 15 19 - - -
11/12:00pm - - - - - S 17 32 9 17 - - -
11/11:30am - - - - - S 17 35 9 19 - - -
11/11:00am - - - - - SSW 15 33 8 18 - - -
11/10:30am - - - - - S 22 39 12 21 - - -
11/10:00am - - - - - S 13 28 7 15 - - -
11/09:30am - - - - - S 20 39 11 21 - - -
11/09:00am - - - - - S 20 37 11 20 - - -
11/08:30am - - - - - S 26 37 14 20 - - -
11/08:00am - - - - - S 17 28 9 15 - - -
11/07:30am - - - - - S 9 17 5 9 - - -
11/07:00am - - - - - SSW 6 19 3 10 - - -
11/06:30am - - - - - SSW 9 24 5 13 - - -
11/06:00am - - - - - SSW 7 19 4 10 - - -
11/05:30am - - - - - SSW 11 28 6 15 - - -
11/05:00am - - - - - SSW 11 20 6 11 - - -
11/04:30am - - - - - SSW 11 19 6 10 - - -
11/04:00am - - - - - SSW 13 24 7 13 - - -
11/03:30am - - - - - SSW 9 17 5 9 - - -
11/03:00am - - - - - SSW 7 15 4 8 - - -
11/02:30am - - - - - SSW 13 30 7 16 - - -
11/02:00am - - - - - SSW 9 20 5 11 - - -
11/01:30am - - - - - SSW 7 19 4 10 - - -
11/01:00am - - - - - SW 9 20 5 11 - - -
11/12:30am - - - - - SSW 9 17 5 9 - - -
11/12:00am - - - - - SW 9 19 5 10 - - -
 
Date/Time
CST
Temp
°C
App
Temp
°C
Dew
Point
°C
Rel
Hum
%
Delta-T
°C
Wind Press
QNH
hPa
Press
MSL
hPa
Rain since
9am
mm
Dir  Spd
km/h
Gust
km/h
Spd
kts
Gust
kts
10/11:30pm - - - - - SW 9 26 5 14 - - -
10/11:00pm - - - - - SSW 9 17 5 9 - - -
10/10:30pm - - - - - SSW 6 15 3 8 - - -
10/10:00pm - - - - - SW 11 20 6 11 - - -
10/09:30pm - - - - - SW 9 19 5 10 - - -
10/09:00pm - - - - - SW 11 30 6 16 - - -
10/08:30pm - - - - - SW 9 19 5 10 - - -
10/08:00pm - - - - - SW 11 24 6 13 - - -
10/07:30pm - - - - - SW 9 19 5 10 - - -
10/07:00pm - - - - - SW 11 28 6 15 - - -
10/06:30pm - - - - - SW 9 22 5 12 - - -
10/06:00pm - - - - - SW 9 19 5 10 - - -
10/05:30pm - - - - - SW 11 22 6 12 - - -
10/05:00pm - - - - - SW 13 26 7 14 - - -
10/04:30pm - - - - - SW 9 24 5 13 - - -
10/04:00pm - - - - - SSW 9 22 5 12 - - -
10/03:30pm - - - - - SW 13 28 7 15 - - -
10/03:00pm - - - - - SSW 11 26 6 14 - - -
10/02:30pm - - - - - SSW 9 19 5 10 - - -
10/02:00pm - - - - - SW 13 32 7 17 - - -
10/01:30pm - - - - - SW 13 26 7 14 - - -
10/01:00pm - - - - - SSW 11 22 6 12 - - -
10/12:30pm - - - - - SSW 11 26 6 14 - - -
10/12:00pm - - - - - SSW 13 24 7 13 - - -
10/11:30am - - - - - SSW 13 28 7 15 - - -
10/11:00am - - - - - SSW 9 22 5 12 - - -
10/10:30am - - - - - SSW 9 20 5 11 - - -
10/10:00am - - - - - SW 7 22 4 12 - - -
10/09:30am - - - - - WSW 7 24 4 13 - - -
10/09:00am - - - - - WSW 7 19 4 10 - - -
10/08:30am - - - - - SW 7 15 4 8 - - -
10/08:00am - - - - - SW 15 32 8 17 - - -
10/07:30am - - - - - WSW 9 17 5 9 - - -
10/07:00am - - - - - WSW 9 20 5 11 - - -
10/06:30am - - - - - SW 11 22 6 12 - - -
10/06:00am - - - - - WSW 9 19 5 10 - - -
10/05:30am - - - - - SW 7 15 4 8 - - -
10/05:00am - - - - - WSW 7 17 4 9 - - -
10/04:30am - - - - - WSW 7 15 4 8 - - -
10/04:00am - - - - - WSW 9 20 5 11 - - -
10/03:30am - - - - - WSW 9 19 5 10 - - -
10/03:00am - - - - - WSW 7 22 4 12 - - -
10/02:30am - - - - - WSW 9 17 5 9 - - -
10/02:00am - - - - - WSW 7 20 4 11 - - -
10/01:30am - - - - - WSW 9 22 5 12 - - -
10/01:00am - - - - - WSW 7 19 4 10 - - -
10/12:30am - - - - - SW 6 13 3 7 - - -
10/12:00am - - - - - WSW 6 13 3 7 - - -
 
Date/Time
CST
Temp
°C
App
Temp
°C
Dew
Point
°C
Rel
Hum
%
Delta-T
°C
Wind Press
QNH
hPa
Press
MSL
hPa
Rain since
9am
mm
Dir  Spd
km/h
Gust
km/h
Spd
kts
Gust
kts
09/11:30pm - - - - - WSW 7 19 4 10 - - -
09/11:00pm - - - - - SW 7 15 4 8 - - -
09/10:30pm - - - - - SW 11 26 6 14 - - -
09/10:00pm - - - - - SW 7 15 4 8 - - -
09/09:30pm - - - - - SW 7 17 4 9 - - -
09/09:00pm - - - - - SSW 9 17 5 9 - - -
09/08:30pm - - - - - SW 7 15 4 8 - - -
09/08:00pm - - - - - SSW 6 9 3 5 - - -
09/07:30pm - - - - - SSW 6 9 3 5 - - -
09/07:00pm - - - - - S 13 20 7 11 - - -
09/06:30pm - - - - - S 15 24 8 13 - - -
09/06:00pm - - - - - S 9 13 5 7 - - -
09/05:30pm - - - - - S 9 17 5 9 - - -
09/05:00pm - - - - - S 9 17 5 9 - - -
09/04:30pm - - - - - SSW 9 17 5 9 - - -
09/04:00pm - - - - - S 15 32 8 17 - - -
09/03:30pm - - - - - S 17 24 9 13 - - -
09/03:00pm - - - - - S 11 28 6 15 - - -
09/02:30pm - - - - - SSW 13 26 7 14 - - -
09/02:00pm - - - - - S 17 26 9 14 - - -
09/01:30pm - - - - - SSW 9 19 5 10 - - -
09/01:00pm - - - - - S 13 22 7 12 - - -
09/12:30pm - - - - - S 19 35 10 19 - - -
09/12:00pm - - - - - S 17 33 9 18 - - -
09/11:30am - - - - - S 17 30 9 16 - - -
09/11:00am - - - - - SSE 20 28 11 15 - - -
09/10:30am - - - - - S 15 26 8 14 - - -
09/10:00am - - - - - S 13 20 7 11 - - -
09/09:30am - - - - - SSE 28 35 15 19 - - -
09/09:00am - - - - - SSE 30 39 16 21 - - -
09/08:30am - - - - - SSE 28 33 15 18 - - -
09/08:00am - - - - - SSE 32 37 17 20 - - -
09/07:30am - - - - - SSE 30 35 16 19 - - -
09/07:00am - - - - - S 26 30 14 16 - - -
09/06:30am - - - - - S 30 33 16 18 - - -
09/06:00am - - - - - S 28 33 15 18 - - -
09/05:30am - - - - - S 30 35 16 19 - - -
09/05:00am - - - - - S 32 35 17 19 - - -
09/04:30am - - - - - S 28 35 15 19 - - -
09/04:00am - - - - - SSE 32 37 17 20 - - -
09/03:30am - - - - - S 33 43 18 23 - - -
09/03:00am - - - - - S 37 46 20 25 - - -
09/02:30am - - - - - S 37 46 20 25 - - -
09/02:00am - - - - - S 33 43 18 23 - - -
09/01:30am - - - - - S 32 41 17 22 - - -
09/01:00am - - - - - S 32 39 17 21 - - -
09/12:30am - - - - - S 28 37 15 20 - - -
09/12:00am - - - - - S 19 33 10 18 - - -
 
Date/Time
CST
Temp
°C
App
Temp
°C
Dew
Point
°C
Rel
Hum
%
Delta-T
°C
Wind Press
QNH
hPa
Press
MSL
hPa
Rain since
9am
mm
Dir  Spd
km/h
Gust
km/h
Spd
kts
Gust
kts
08/11:30pm - - - - - S 15 22 8 12 - - -
08/11:00pm - - - - - S 20 24 11 13 - - -
08/10:30pm - - - - - S 19 24 10 13 - - -
08/10:00pm - - - - - S 19 24 10 13 - - -
08/09:30pm - - - - - SSE 20 24 11 13 - - -
08/09:00pm - - - - - SSE 26 32 14 17 - - -
08/08:30pm - - - - - SSE 24 28 13 15 - - -
08/08:00pm - - - - - SSE 22 24 12 13 - - -
08/07:30pm - - - - - SE 20 24 11 13 - - -
08/07:00pm - - - - - SSE 20 22 11 12 - - -
08/06:30pm - - - - - SSE 20 24 11 13 - - -
08/06:00pm - - - - - SSE 20 24 11 13 - - -
08/05:30pm - - - - - SSW 7 15 4 8 - - -
08/05:00pm - - - - - SW 6 11 3 6 - - -

Latest Capital City Observations: Canberra | Sydney | Melbourne | Brisbane | Adelaide | Perth | Hobart | Darwin

Other formats

Comma delimited format used in spreadsheet applications
http://www.bom.gov.au/fwo/IDS60901/IDS60901.95679.axf

JavaScript Object Notation format (JSON) in row-major order
http://www.bom.gov.au/fwo/IDS60901/IDS60901.95679.json

Data quality

Most of these data are generated automatically and are frequently updated. Quality checks on data are not normally performed. It is possible for incorrect values to appear. Refer to information at About Latest Weather Observations and please check the disclaimer before using these data.